sensor_id;sensor_type;location;lat;lon;timestamp;pressure;altitude;pressure_sealevel;temperature;humidity
74230;BME280;62589;12.568;99.958;2023-08-01T00:00:26;100506.59;;;34.74;49.06
74230;BME280;62589;12.568;99.958;2023-08-01T00:02:52;100505.78;;;34.77;49.16
74230;BME280;62589;12.568;99.958;2023-08-01T00:05:19;100511.78;;;34.79;49.10
74230;BME280;62589;12.568;99.958;2023-08-01T00:07:45;100514.16;;;34.77;48.82
74230;BME280;62589;12.568;99.958;2023-08-01T00:10:12;100507.38;;;34.82;48.32
74230;BME280;62589;12.568;99.958;2023-08-01T00:12:38;100496.63;;;34.84;48.49
74230;BME280;62589;12.568;99.958;2023-08-01T00:15:05;100505.38;;;34.86;48.26
74230;BME280;62589;12.568;99.958;2023-08-01T00:17:32;100508.94;;;34.90;48.55
74230;BME280;62589;12.568;99.958;2023-08-01T00:19:58;100515.66;;;34.92;48.59
74230;BME280;62589;12.568;99.958;2023-08-01T00:22:25;100500.50;;;34.97;48.57
74230;BME280;62589;12.568;99.958;2023-08-01T00:24:51;100508.06;;;35.00;48.45
74230;BME280;62589;12.568;99.958;2023-08-01T00:27:18;100512.00;;;35.06;48.39
74230;BME280;62589;12.568;99.958;2023-08-01T00:29:45;100528.31;;;35.11;48.69
74230;BME280;62589;12.568;99.958;2023-08-01T00:32:11;100531.06;;;35.14;48.77
74230;BME280;62589;12.568;99.958;2023-08-01T00:34:38;100532.22;;;35.17;48.60
74230;BME280;62589;12.568;99.958;2023-08-01T00:37:05;100536.59;;;35.22;48.64
74230;BME280;62589;12.568;99.958;2023-08-01T00:39:31;100544.16;;;35.25;48.30
74230;BME280;62589;12.568;99.958;2023-08-01T00:41:59;100546.16;;;35.28;48.27
74230;BME280;62589;12.568;99.958;2023-08-01T00:44:25;100542.97;;;35.29;47.99
74230;BME280;62589;12.568;99.958;2023-08-01T00:46:52;100549.34;;;35.30;48.17
74230;BME280;62589;12.568;99.958;2023-08-01T00:49:18;100550.91;;;35.31;48.09
74230;BME280;62589;12.568;99.958;2023-08-01T00:51:45;100555.72;;;35.30;48.10
74230;BME280;62589;12.568;99.958;2023-08-01T00:54:11;100558.91;;;35.29;48.74
74230;BME280;62589;12.568;99.958;2023-08-01T00:56:38;100566.47;;;35.32;48.66
74230;BME280;62589;12.568;99.958;2023-08-01T00:59:05;100574.03;;;35.31;48.20
74230;BME280;62589;12.568;99.958;2023-08-01T01:01:32;100565.25;;;35.33;47.75
74230;BME280;62589;12.568;99.958;2023-08-01T01:03:59;100566.09;;;35.30;47.92
74230;BME280;62589;12.568;99.958;2023-08-01T01:06:41;100572.06;;;35.32;48.35
74230;BME280;62589;12.568;99.958;2023-08-01T01:09:20;100577.22;;;35.33;48.41
74230;BME280;62589;12.568;99.958;2023-08-01T01:11:47;100580.38;;;35.35;48.36
74230;BME280;62589;12.568;99.958;2023-08-01T01:14:13;100574.00;;;35.35;48.25
74230;BME280;62589;12.568;99.958;2023-08-01T01:16:40;100578.34;;;35.39;48.38
74230;BME280;62589;12.568;99.958;2023-08-01T01:19:07;100585.13;;;35.42;48.81
74230;BME280;62589;12.568;99.958;2023-08-01T01:21:37;100581.91;;;35.43;48.42
74230;BME280;62589;12.568;99.958;2023-08-01T01:24:07;100585.47;;;35.47;48.67
74230;BME280;62589;12.568;99.958;2023-08-01T01:26:34;100587.47;;;35.51;48.12
74230;BME280;62589;12.568;99.958;2023-08-01T01:29:02;100590.22;;;35.54;48.50
74230;BME280;62589;12.568;99.958;2023-08-01T01:31:32;100594.16;;;35.57;48.18
74230;BME280;62589;12.568;99.958;2023-08-01T01:33:59;100599.31;;;35.62;48.07
74230;BME280;62589;12.568;99.958;2023-08-01T01:36:25;100598.09;;;35.66;48.48
74230;BME280;62589;12.568;99.958;2023-08-01T01:38:52;100593.25;;;35.74;48.77
74230;BME280;62589;12.568;99.958;2023-08-01T01:41:18;100598.00;;;35.77;48.70
74230;BME280;62589;12.568;99.958;2023-08-01T01:43:45;100597.53;;;35.86;48.33
74230;BME280;62589;12.568;99.958;2023-08-01T01:46:12;100591.09;;;35.92;48.13
74230;BME280;62589;12.568;99.958;2023-08-01T01:48:38;100591.81;;;36.00;47.78
74230;BME280;62589;12.568;99.958;2023-08-01T01:51:05;100595.38;;;36.04;47.41
74230;BME280;62589;12.568;99.958;2023-08-01T01:53:31;100579.78;;;36.06;47.02
74230;BME280;62589;12.568;99.958;2023-08-01T01:55:57;100591.34;;;36.08;46.95
74230;BME280;62589;12.568;99.958;2023-08-01T01:58:24;100582.91;;;36.12;47.18
74230;BME280;62589;12.568;99.958;2023-08-01T02:00:50;100579.66;;;36.17;46.64
74230;BME280;62589;12.568;99.958;2023-08-01T02:03:17;100587.19;;;36.20;46.23
74230;BME280;62589;12.568;99.958;2023-08-01T02:05:44;100585.19;;;36.21;46.54
74230;BME280;62589;12.568;99.958;2023-08-01T02:08:11;100576.41;;;36.22;46.52
74230;BME280;62589;12.568;99.958;2023-08-01T02:10:37;100581.19;;;36.22;46.60
74230;BME280;62589;12.568;99.958;2023-08-01T02:13:04;100576.78;;;36.28;46.68
74230;BME280;62589;12.568;99.958;2023-08-01T02:15:31;100591.09;;;36.33;46.72
74230;BME280;62589;12.568;99.958;2023-08-01T02:17:57;100588.25;;;36.37;46.60
74230;BME280;62589;12.568;99.958;2023-08-01T02:20:24;100569.00;;;36.42;45.52
74230;BME280;62589;12.568;99.958;2023-08-01T02:22:50;100579.72;;;36.47;45.71
74230;BME280;62589;12.568;99.958;2023-08-01T02:25:17;100567.38;;;36.45;44.88
74230;BME280;62589;12.568;99.958;2023-08-01T02:27:43;100565.00;;;36.43;45.02
74230;BME280;62589;12.568;99.958;2023-08-01T02:30:13;100585.28;;;36.51;45.31
74230;BME280;62589;12.568;99.958;2023-08-01T02:32:39;100593.63;;;36.55;45.51
74230;BME280;62589;12.568;99.958;2023-08-01T02:35:06;100580.75;;;36.61;45.27
74230;BME280;62589;12.568;99.958;2023-08-01T02:37:33;100593.50;;;36.65;44.86
74230;BME280;62589;12.568;99.958;2023-08-01T02:40:01;100587.84;;;36.69;44.13
74230;BME280;62589;12.568;99.958;2023-08-01T02:42:33;100585.81;;;36.76;44.47
74230;BME280;62589;12.568;99.958;2023-08-01T02:44:59;100591.03;;;36.71;43.77
74230;BME280;62589;12.568;99.958;2023-08-01T02:47:26;100601.41;;;36.74;43.55
74230;BME280;62589;12.568;99.958;2023-08-01T02:49:52;100603.00;;;36.75;43.76
74230;BME280;62589;12.568;99.958;2023-08-01T02:52:19;100594.97;;;36.77;44.00
74230;BME280;62589;12.568;99.958;2023-08-01T02:54:46;100600.94;;;36.79;44.43
74230;BME280;62589;12.568;99.958;2023-08-01T02:57:12;100600.09;;;36.82;44.05
74230;BME280;62589;12.568;99.958;2023-08-01T02:59:38;100597.66;;;36.84;43.91
74230;BME280;62589;12.568;99.958;2023-08-01T03:02:05;100594.50;;;36.82;43.33
74230;BME280;62589;12.568;99.958;2023-08-01T03:04:31;100594.06;;;36.83;43.44
74230;BME280;62589;12.568;99.958;2023-08-01T03:06:58;100598.88;;;36.83;43.38
74230;BME280;62589;12.568;99.958;2023-08-01T03:09:24;100594.06;;;36.83;43.23
74230;BME280;62589;12.568;99.958;2023-08-01T03:11:51;100588.91;;;36.82;43.15
74230;BME280;62589;12.568;99.958;2023-08-01T03:14:17;100577.28;;;36.83;43.64
74230;BME280;62589;12.568;99.958;2023-08-01T03:16:44;100570.53;;;36.81;43.31
74230;BME280;62589;12.568;99.958;2023-08-01T03:19:10;100577.72;;;36.82;42.92
74230;BME280;62589;12.568;99.958;2023-08-01T03:21:37;100576.19;;;36.77;43.66
74230;BME280;62589;12.568;99.958;2023-08-01T03:24:04;100583.25;;;36.86;43.42
74230;BME280;62589;12.568;99.958;2023-08-01T03:26:35;100580.47;;;36.86;43.37
74230;BME280;62589;12.568;99.958;2023-08-01T03:29:02;100596.03;;;36.87;43.38
74230;BME280;62589;12.568;99.958;2023-08-01T03:31:29;100582.88;;;36.83;43.51
74230;BME280;62589;12.568;99.958;2023-08-01T03:33:55;100586.50;;;36.80;43.83
74230;BME280;62589;12.568;99.958;2023-08-01T03:36:25;100584.47;;;36.85;43.46
74230;BME280;62589;12.568;99.958;2023-08-01T03:38:51;100592.44;;;36.86;43.50
74230;BME280;62589;12.568;99.958;2023-08-01T03:41:18;100580.09;;;36.83;42.92
74230;BME280;62589;12.568;99.958;2023-08-01T03:43:44;100579.72;;;36.81;43.26
74230;BME280;62589;12.568;99.958;2023-08-01T03:46:11;100582.94;;;36.80;43.16
74230;BME280;62589;12.568;99.958;2023-08-01T03:48:37;100585.69;;;36.83;43.18
74230;BME280;62589;12.568;99.958;2023-08-01T03:51:04;100590.97;;;36.78;42.71
74230;BME280;62589;12.568;99.958;2023-08-01T03:53:31;100583.38;;;36.78;42.89
74230;BME280;62589;12.568;99.958;2023-08-01T03:55:57;100566.25;;;36.73;42.92
74230;BME280;62589;12.568;99.958;2023-08-01T03:58:23;100570.63;;;36.74;42.84
74230;BME280;62589;12.568;99.958;2023-08-01T04:00:50;100575.41;;;36.77;43.38
74230;BME280;62589;12.568;99.958;2023-08-01T04:03:16;100570.16;;;36.79;43.32
74230;BME280;62589;12.568;99.958;2023-08-01T04:05:43;100565.00;;;36.77;43.05
74230;BME280;62589;12.568;99.958;2023-08-01T04:08:09;100561.34;;;36.80;42.93
74230;BME280;62589;12.568;99.958;2023-08-01T04:10:36;100573.41;;;36.77;43.51
74230;BME280;62589;12.568;99.958;2023-08-01T04:13:02;100564.22;;;36.77;43.36
74230;BME280;62589;12.568;99.958;2023-08-01T04:15:29;100557.31;;;36.81;42.73
74230;BME280;62589;12.568;99.958;2023-08-01T04:17:56;100554.09;;;36.83;43.32
74230;BME280;62589;12.568;99.958;2023-08-01T04:20:22;100562.56;;;36.79;43.34
74230;BME280;62589;12.568;99.958;2023-08-01T04:22:49;100578.88;;;36.85;43.50
74230;BME280;62589;12.568;99.958;2023-08-01T04:25:15;100564.41;;;36.90;43.35
74230;BME280;62589;12.568;99.958;2023-08-01T04:27:42;100566.78;;;36.91;43.41
74230;BME280;62589;12.568;99.958;2023-08-01T04:30:08;100561.56;;;36.93;42.94
74230;BME280;62589;12.568;99.958;2023-08-01T04:32:35;100553.56;;;36.95;43.43
74230;BME280;62589;12.568;99.958;2023-08-01T04:35:01;100546.00;;;36.92;42.49
74230;BME280;62589;12.568;99.958;2023-08-01T04:37:28;100546.66;;;37.00;42.89
74230;BME280;62589;12.568;99.958;2023-08-01T04:39:54;100543.88;;;37.00;43.08
74230;BME280;62589;12.568;99.958;2023-08-01T04:42:21;100544.31;;;36.98;42.61
74230;BME280;62589;12.568;99.958;2023-08-01T04:44:47;100539.06;;;37.00;42.67
74230;BME280;62589;12.568;99.958;2023-08-01T04:47:14;100539.13;;;36.97;42.60
74230;BME280;62589;12.568;99.958;2023-08-01T04:49:41;100540.22;;;37.03;42.45
74230;BME280;62589;12.568;99.958;2023-08-01T04:52:07;100539.38;;;37.06;42.46
74230;BME280;62589;12.568;99.958;2023-08-01T04:54:34;100542.13;;;37.09;43.38
74230;BME280;62589;12.568;99.958;2023-08-01T04:57:01;100539.72;;;37.11;42.92
74230;BME280;62589;12.568;99.958;2023-08-01T04:59:27;100529.69;;;37.14;42.91
74230;BME280;62589;12.568;99.958;2023-08-01T05:01:54;100524.56;;;37.09;42.34
74230;BME280;62589;12.568;99.958;2023-08-01T05:04:20;100530.88;;;37.13;42.47
74230;BME280;62589;12.568;99.958;2023-08-01T05:06:46;100522.91;;;37.11;42.21
74230;BME280;62589;12.568;99.958;2023-08-01T05:09:13;100519.69;;;37.13;42.61
74230;BME280;62589;12.568;99.958;2023-08-01T05:11:39;100516.91;;;37.13;42.32
74230;BME280;62589;12.568;99.958;2023-08-01T05:14:06;100518.03;;;37.19;42.61
74230;BME280;62589;12.568;99.958;2023-08-01T05:16:32;100515.53;;;37.25;42.83
74230;BME280;62589;12.568;99.958;2023-08-01T05:18:58;100513.50;;;37.25;42.91
74230;BME280;62589;12.568;99.958;2023-08-01T05:21:25;100507.84;;;37.29;42.95
74230;BME280;62589;12.568;99.958;2023-08-01T05:23:52;100497.41;;;37.33;42.98
74230;BME280;62589;12.568;99.958;2023-08-01T05:26:18;100502.94;;;37.36;42.92
74230;BME280;62589;12.568;99.958;2023-08-01T05:28:44;100499.28;;;37.39;42.44
74230;BME280;62589;12.568;99.958;2023-08-01T05:31:12;100484.88;;;37.41;42.25
74230;BME280;62589;12.568;99.958;2023-08-01T05:33:42;100490.81;;;37.43;42.30
74230;BME280;62589;12.568;99.958;2023-08-01T05:36:08;100480.69;;;37.49;41.83
74230;BME280;62589;12.568;99.958;2023-08-01T05:38:35;100479.38;;;37.57;41.88
74230;BME280;62589;12.568;99.958;2023-08-01T05:41:01;100476.94;;;37.59;41.74
74230;BME280;62589;12.568;99.958;2023-08-01T05:43:28;100474.84;;;37.63;42.19
74230;BME280;62589;12.568;99.958;2023-08-01T05:45:54;100460.38;;;37.68;41.87
74230;BME280;62589;12.568;99.958;2023-08-01T05:48:21;100464.75;;;37.69;41.88
74230;BME280;62589;12.568;99.958;2023-08-01T05:50:47;100460.16;;;37.79;41.66
74230;BME280;62589;12.568;99.958;2023-08-01T05:53:14;100460.44;;;37.84;40.59
74230;BME280;62589;12.568;99.958;2023-08-01T05:55:43;100457.50;;;37.92;40.66
74230;BME280;62589;12.568;99.958;2023-08-01T05:58:15;100457.88;;;37.94;40.88
74230;BME280;62589;12.568;99.958;2023-08-01T06:00:42;100454.56;;;37.99;40.90
74230;BME280;62589;12.568;99.958;2023-08-01T06:03:08;100458.41;;;38.05;40.62
74230;BME280;62589;12.568;99.958;2023-08-01T06:05:35;100442.72;;;38.11;40.04
74230;BME280;62589;12.568;99.958;2023-08-01T06:08:05;100439.41;;;38.16;39.77
74230;BME280;62589;12.568;99.958;2023-08-01T06:10:31;100433.38;;;38.17;39.37
74230;BME280;62589;12.568;99.958;2023-08-01T06:12:58;100428.38;;;38.25;39.65
74230;BME280;62589;12.568;99.958;2023-08-01T06:15:27;100443.56;;;38.28;39.82
74230;BME280;62589;12.568;99.958;2023-08-01T06:17:53;100437.00;;;38.34;39.84
74230;BME280;62589;12.568;99.958;2023-08-01T06:20:20;100438.16;;;38.37;39.25
74230;BME280;62589;12.568;99.958;2023-08-01T06:22:46;100422.28;;;38.46;38.82
74230;BME280;62589;12.568;99.958;2023-08-01T06:25:13;100414.94;;;38.53;39.66
74230;BME280;62589;12.568;99.958;2023-08-01T06:27:39;100423.72;;;38.55;38.98
74230;BME280;62589;12.568;99.958;2023-08-01T06:30:25;100411.03;;;38.66;39.43
74230;BME280;62589;12.568;99.958;2023-08-01T06:32:52;100404.97;;;38.68;39.20
74230;BME280;62589;12.568;99.958;2023-08-01T06:35:18;100396.84;;;38.73;39.12
74230;BME280;62589;12.568;99.958;2023-08-01T06:37:45;100403.06;;;38.81;39.36
74230;BME280;62589;12.568;99.958;2023-08-01T06:40:12;100397.81;;;38.83;38.88
74230;BME280;62589;12.568;99.958;2023-08-01T06:42:38;100397.38;;;38.84;39.14
74230;BME280;62589;12.568;99.958;2023-08-01T06:45:07;100397.72;;;38.87;38.73
74230;BME280;62589;12.568;99.958;2023-08-01T06:47:33;100388.06;;;38.88;38.78
74230;BME280;62589;12.568;99.958;2023-08-01T09:59:11;100299.44;;;38.58;38.86
74230;BME280;62589;12.568;99.958;2023-08-01T10:01:44;100297.94;;;38.53;38.86
74230;BME280;62589;12.568;99.958;2023-08-01T10:04:12;100306.44;;;38.49;38.99
74230;BME280;62589;12.568;99.958;2023-08-01T10:06:41;100305.63;;;38.49;38.45
74230;BME280;62589;12.568;99.958;2023-08-01T10:09:11;100306.78;;;38.51;38.12
74230;BME280;62589;12.568;99.958;2023-08-01T10:11:40;100309.66;;;38.48;38.51
74230;BME280;62589;12.568;99.958;2023-08-01T10:14:07;100317.63;;;38.49;37.67
74230;BME280;62589;12.568;99.958;2023-08-01T10:16:34;100333.75;;;38.45;37.32
74230;BME280;62589;12.568;99.958;2023-08-01T10:19:02;100328.63;;;38.44;37.29
74230;BME280;62589;12.568;99.958;2023-08-01T10:21:32;100344.66;;;38.43;37.62
74230;BME280;62589;12.568;99.958;2023-08-01T10:24:03;100337.03;;;38.44;37.13
74230;BME280;62589;12.568;99.958;2023-08-01T10:26:31;100337.97;;;38.37;37.16
74230;BME280;62589;12.568;99.958;2023-08-01T10:28:58;100355.97;;;38.40;37.04
74230;BME280;62589;12.568;99.958;2023-08-01T10:31:25;100352.44;;;38.36;37.25
74230;BME280;62589;12.568;99.958;2023-08-01T10:33:52;100344.81;;;38.36;38.24
74230;BME280;62589;12.568;99.958;2023-08-01T10:36:24;100354.81;;;38.37;38.42
74230;BME280;62589;12.568;99.958;2023-08-01T10:38:56;100359.63;;;38.37;38.33
74230;BME280;62589;12.568;99.958;2023-08-01T10:41:31;100359.72;;;38.33;37.47
74230;BME280;62589;12.568;99.958;2023-08-01T10:44:13;100357.25;;;38.35;37.86
74230;BME280;62589;12.568;99.958;2023-08-01T10:46:51;100359.34;;;38.31;37.53
74230;BME280;62589;12.568;99.958;2023-08-01T10:49:34;100363.38;;;38.30;38.18
74230;BME280;62589;12.568;99.958;2023-08-01T10:52:03;100369.00;;;38.30;38.46
74230;BME280;62589;12.568;99.958;2023-08-01T10:54:32;100364.78;;;38.22;38.39
74230;BME280;62589;12.568;99.958;2023-08-01T10:57:03;100376.88;;;38.19;38.41
74230;BME280;62589;12.568;99.958;2023-08-01T10:59:32;100378.97;;;38.15;38.68
74230;BME280;62589;12.568;99.958;2023-08-01T11:01:59;100369.75;;;38.14;38.76
74230;BME280;62589;12.568;99.958;2023-08-01T11:04:27;100368.97;;;38.14;38.71
74230;BME280;62589;12.568;99.958;2023-08-01T11:06:56;100372.63;;;38.11;38.66
74230;BME280;62589;12.568;99.958;2023-08-01T11:09:26;100367.16;;;38.04;38.60
74230;BME280;62589;12.568;99.958;2023-08-01T11:11:58;100371.88;;;38.07;38.95
74230;BME280;62589;12.568;99.958;2023-08-01T11:14:31;100378.72;;;38.06;39.21
74230;BME280;62589;12.568;99.958;2023-08-01T11:17:02;100386.44;;;38.02;38.76
74230;BME280;62589;12.568;99.958;2023-08-01T11:19:30;100381.34;;;37.97;38.90
74230;BME280;62589;12.568;99.958;2023-08-01T11:21:57;100401.75;;;37.97;38.88
74230;BME280;62589;12.568;99.958;2023-08-01T11:24:25;100384.56;;;37.95;38.48
74230;BME280;62589;12.568;99.958;2023-08-01T11:26:54;100385.44;;;37.92;38.76
74230;BME280;62589;12.568;99.958;2023-08-01T11:29:21;100391.41;;;37.94;38.84
74230;BME280;62589;12.568;99.958;2023-08-01T11:31:56;100397.78;;;37.95;39.04
74230;BME280;62589;12.568;99.958;2023-08-01T11:34:23;100407.41;;;37.94;38.70
74230;BME280;62589;12.568;99.958;2023-08-01T11:36:50;100402.69;;;37.91;39.17
74230;BME280;62589;12.568;99.958;2023-08-01T11:39:17;100423.50;;;37.90;38.79
74230;BME280;62589;12.568;99.958;2023-08-01T11:41:45;100418.78;;;37.87;39.12
74230;BME280;62589;12.568;99.958;2023-08-01T11:44:11;100429.63;;;37.84;39.05
74230;BME280;62589;12.568;99.958;2023-08-01T11:46:39;100424.91;;;37.81;39.20
74230;BME280;62589;12.568;99.958;2023-08-01T11:49:07;100438.44;;;37.83;39.55
74230;BME280;62589;12.568;99.958;2023-08-01T11:51:44;100440.91;;;37.81;39.41
74230;BME280;62589;12.568;99.958;2023-08-01T11:54:12;100435.75;;;37.79;39.74
74230;BME280;62589;12.568;99.958;2023-08-01T11:56:40;100440.97;;;37.77;39.62
74230;BME280;62589;12.568;99.958;2023-08-01T11:59:14;100437.41;;;37.77;39.80
74230;BME280;62589;12.568;99.958;2023-08-01T12:01:44;100449.38;;;37.77;39.99
74230;BME280;62589;12.568;99.958;2023-08-01T12:04:10;100452.25;;;37.74;40.23
74230;BME280;62589;12.568;99.958;2023-08-01T12:06:37;100469.50;;;37.72;40.13
74230;BME280;62589;12.568;99.958;2023-08-01T12:09:10;100467.91;;;37.71;40.18
74230;BME280;62589;12.568;99.958;2023-08-01T12:11:37;100474.72;;;37.70;40.54
74230;BME280;62589;12.568;99.958;2023-08-01T12:14:14;100479.97;;;37.68;40.22
74230;BME280;62589;12.568;99.958;2023-08-01T12:16:42;100482.41;;;37.66;40.35
74230;BME280;62589;12.568;99.958;2023-08-01T12:19:19;100488.81;;;37.67;40.50
74230;BME280;62589;12.568;99.958;2023-08-01T12:21:47;100500.03;;;37.63;40.19
74230;BME280;62589;12.568;99.958;2023-08-01T12:24:13;100486.50;;;37.62;40.14
74230;BME280;62589;12.568;99.958;2023-08-01T12:26:40;100507.31;;;37.61;40.63
74230;BME280;62589;12.568;99.958;2023-08-01T12:29:06;100501.78;;;37.57;39.90
74230;BME280;62589;12.568;99.958;2023-08-01T12:31:33;100503.47;;;37.51;40.02
74230;BME280;62589;12.568;99.958;2023-08-01T12:34:00;100520.28;;;37.51;40.20
74230;BME280;62589;12.568;99.958;2023-08-01T12:36:26;100520.34;;;37.47;40.11
74230;BME280;62589;12.568;99.958;2023-08-01T12:38:53;100526.72;;;37.48;40.56
74230;BME280;62589;12.568;99.958;2023-08-01T12:41:19;100528.75;;;37.47;40.48
74230;BME280;62589;12.568;99.958;2023-08-01T12:43:46;100542.00;;;37.43;40.64
74230;BME280;62589;12.568;99.958;2023-08-01T12:46:12;100535.59;;;37.43;40.45
74230;BME280;62589;12.568;99.958;2023-08-01T12:48:39;100543.66;;;37.41;40.61
74230;BME280;62589;12.568;99.958;2023-08-01T12:51:05;100547.69;;;37.40;40.59
74230;BME280;62589;12.568;99.958;2023-08-01T12:53:32;100549.31;;;37.37;40.68
74230;BME280;62589;12.568;99.958;2023-08-01T12:55:58;100558.56;;;37.34;40.77
74230;BME280;62589;12.568;99.958;2023-08-01T12:58:24;100566.19;;;37.34;40.83
74230;BME280;62589;12.568;99.958;2023-08-01T13:00:51;100563.81;;;37.32;41.22
74230;BME280;62589;12.568;99.958;2023-08-01T13:03:17;100561.06;;;37.29;40.92
74230;BME280;62589;12.568;99.958;2023-08-01T13:05:44;100568.25;;;37.30;41.08
74230;BME280;62589;12.568;99.958;2023-08-01T13:08:10;100572.25;;;37.29;41.32
74230;BME280;62589;12.568;99.958;2023-08-01T13:10:38;100575.84;;;37.29;41.05
74230;BME280;62589;12.568;99.958;2023-08-01T13:13:05;100580.66;;;37.29;41.57
74230;BME280;62589;12.568;99.958;2023-08-01T13:15:32;100582.25;;;37.30;41.06
74230;BME280;62589;12.568;99.958;2023-08-01T13:17:58;100583.81;;;37.31;41.68
74230;BME280;62589;12.568;99.958;2023-08-01T13:20:25;100597.88;;;37.27;41.69
74230;BME280;62589;12.568;99.958;2023-08-01T13:22:51;100603.88;;;37.26;41.77
74230;BME280;62589;12.568;99.958;2023-08-01T13:25:18;100603.09;;;37.25;41.49
74230;BME280;62589;12.568;99.958;2023-08-01T13:27:45;100603.88;;;37.26;41.81
74230;BME280;62589;12.568;99.958;2023-08-01T13:30:11;100606.28;;;37.27;41.43
74230;BME280;62589;12.568;99.958;2023-08-01T13:32:44;100603.09;;;37.25;41.75
74230;BME280;62589;12.568;99.958;2023-08-01T13:35:14;100601.88;;;37.26;41.55
74230;BME280;62589;12.568;99.958;2023-08-01T13:37:41;100611.91;;;37.24;41.82
74230;BME280;62589;12.568;99.958;2023-08-01T13:40:08;100615.94;;;37.23;41.41
74230;BME280;62589;12.568;99.958;2023-08-01T13:42:37;100621.59;;;37.19;41.36
74230;BME280;62589;12.568;99.958;2023-08-01T13:45:04;100615.56;;;37.21;41.79
74230;BME280;62589;12.568;99.958;2023-08-01T13:47:30;100608.09;;;37.10;41.44
74230;BME280;62589;12.568;99.958;2023-08-01T13:49:57;100617.66;;;37.13;41.31
74230;BME280;62589;12.568;99.958;2023-08-01T13:52:23;100619.34;;;37.07;41.52
74230;BME280;62589;12.568;99.958;2023-08-01T13:54:49;100622.13;;;37.07;41.34
74230;BME280;62589;12.568;99.958;2023-08-01T13:57:16;100614.16;;;37.05;41.24
74230;BME280;62589;12.568;99.958;2023-08-01T13:59:42;100624.97;;;37.03;40.96
74230;BME280;62589;12.568;99.958;2023-08-01T14:02:09;100627.06;;;36.99;41.03
74230;BME280;62589;12.568;99.958;2023-08-01T14:04:35;100639.47;;;36.98;41.55
74230;BME280;62589;12.568;99.958;2023-08-01T14:07:02;100630.69;;;36.96;41.44
74230;BME280;62589;12.568;99.958;2023-08-01T14:09:28;100628.31;;;36.95;41.33
74230;BME280;62589;12.568;99.958;2023-08-01T14:11:58;100637.13;;;36.93;41.07
74230;BME280;62589;12.568;99.958;2023-08-01T14:14:25;100639.97;;;36.90;41.25
74230;BME280;62589;12.568;99.958;2023-08-01T14:16:51;100649.19;;;36.87;41.00
74230;BME280;62589;12.568;99.958;2023-08-01T14:19:17;100650.81;;;36.84;40.93
74230;BME280;62589;12.568;99.958;2023-08-01T14:21:44;100646.06;;;36.81;41.09
74230;BME280;62589;12.568;99.958;2023-08-01T14:24:10;100646.94;;;36.78;41.21
74230;BME280;62589;12.568;99.958;2023-08-01T14:26:36;100660.53;;;36.76;41.35
74230;BME280;62589;12.568;99.958;2023-08-01T14:29:03;100672.94;;;36.75;41.22
74230;BME280;62589;12.568;99.958;2023-08-01T14:31:29;100677.31;;;36.76;41.38
74230;BME280;62589;12.568;99.958;2023-08-01T14:33:56;100681.75;;;36.73;41.36
74230;BME280;62589;12.568;99.958;2023-08-01T14:36:22;100680.53;;;36.71;41.48
74230;BME280;62589;12.568;99.958;2023-08-01T14:38:49;100693.34;;;36.68;41.43
74230;BME280;62589;12.568;99.958;2023-08-01T14:41:20;100694.56;;;36.67;41.47
74230;BME280;62589;12.568;99.958;2023-08-01T14:43:46;100693.78;;;36.67;41.44
74230;BME280;62589;12.568;99.958;2023-08-01T14:46:13;100695.78;;;36.66;41.60
74230;BME280;62589;12.568;99.958;2023-08-01T14:48:39;100708.56;;;36.67;41.55
74230;BME280;62589;12.568;99.958;2023-08-01T14:51:06;100703.78;;;36.64;41.58
74230;BME280;62589;12.568;99.958;2023-08-01T14:53:33;100697.41;;;36.64;41.84
74230;BME280;62589;12.568;99.958;2023-08-01T14:55:59;100698.97;;;36.65;41.72
74230;BME280;62589;12.568;99.958;2023-08-01T14:58:28;100703.78;;;36.64;41.81
74230;BME280;62589;12.568;99.958;2023-08-01T15:00:55;100696.19;;;36.65;41.82
74230;BME280;62589;12.568;99.958;2023-08-01T15:03:21;100701.78;;;36.65;42.37
74230;BME280;62589;12.568;99.958;2023-08-01T15:05:47;100704.97;;;36.67;42.03
74230;BME280;62589;12.568;99.958;2023-08-01T15:08:14;100700.56;;;36.66;42.13
74230;BME280;62589;12.568;99.958;2023-08-01T15:10:43;100710.22;;;36.61;41.94
74230;BME280;62589;12.568;99.958;2023-08-01T15:13:10;100724.59;;;36.60;41.94
74230;BME280;62589;12.568;99.958;2023-08-01T15:15:37;100714.63;;;36.59;41.92
74230;BME280;62589;12.568;99.958;2023-08-01T15:18:03;100707.09;;;36.56;41.83
74230;BME280;62589;12.568;99.958;2023-08-01T15:20:31;100717.50;;;36.52;41.72
74230;BME280;62589;12.568;99.958;2023-08-01T15:23:01;100696.06;;;36.38;42.04
74230;BME280;62589;12.568;99.958;2023-08-01T15:25:28;100707.38;;;36.27;41.96
74230;BME280;62589;12.568;99.958;2023-08-01T15:27:54;100698.59;;;36.22;42.07
74230;BME280;62589;12.568;99.958;2023-08-01T15:30:20;100704.19;;;36.25;42.30
74230;BME280;62589;12.568;99.958;2023-08-01T15:32:47;100713.38;;;36.22;42.24
74230;BME280;62589;12.568;99.958;2023-08-01T15:35:14;100704.19;;;36.25;42.23
74230;BME280;62589;12.568;99.958;2023-08-01T15:37:41;100697.78;;;36.28;42.22
74230;BME280;62589;12.568;99.958;2023-08-01T15:40:07;100706.56;;;36.27;42.42
74230;BME280;62589;12.568;99.958;2023-08-01T15:42:34;100717.34;;;36.28;42.38
74230;BME280;62589;12.568;99.958;2023-08-01T15:45:00;100709.00;;;36.25;42.11
74230;BME280;62589;12.568;99.958;2023-08-01T15:47:27;100700.97;;;36.27;42.30
74230;BME280;62589;12.568;99.958;2023-08-01T15:49:53;100695.94;;;36.07;42.48